Time;durP1;ratioP1;P1;durP2;ratioP2;P2;SDS_P1;SDS_P2;PMS_P1;PMS_P2;Temp;Humidity;BMP_temperature;BMP_pressure;BME280_temperature;BME280_humidity;BME280_pressure;Samples;Min_cycle;Max_cycle;Signal;HPM_P1;HPM_P2
2024/01/21 00:00:48;;;;;;;11.63;6.87;;;1.20;99.90;;;;;;5017076;28;20473;-84
2024/01/21 00:03:14;;;;;;;11.37;7.13;;;-0.20;99.90;;;;;;5025019;28;20508;-86
2024/01/21 00:05:40;;;;;;;13.97;7.00;;;-0.20;99.90;;;;;;5027373;28;20094;-85
2024/01/21 00:08:06;;;;;;;11.50;7.00;;;-0.10;99.90;;;;;;5036367;28;20476;-86
2024/01/21 00:10:31;;;;;;;10.83;7.07;;;-0.10;99.90;;;;;;5039302;28;20088;-86
2024/01/21 00:12:57;;;;;;;11.27;6.93;;;-0.10;99.90;;;;;;5034816;28;20036;-85
2024/01/21 00:15:23;;;;;;;15.97;7.40;;;-0.20;99.90;;;;;;5009146;28;20041;-85
2024/01/21 00:17:49;;;;;;;11.50;6.87;;;-0.10;99.90;;;;;;5013454;28;20041;-86
2024/01/21 00:20:14;;;;;;;12.03;6.97;;;-0.10;99.90;;;;;;5019380;28;20033;-86
2024/01/21 00:22:40;;;;;;;13.30;7.23;;;-0.20;99.90;;;;;;5036772;28;20382;-86
2024/01/21 00:25:09;;;;;;;10.60;6.37;;;-0.10;99.90;;;;;;5037128;28;20037;-86
2024/01/21 00:27:35;;;;;;;11.63;7.10;;;-0.20;99.90;;;;;;5000517;28;20056;-85
2024/01/21 00:30:01;;;;;;;11.70;7.03;;;-0.10;99.90;;;;;;5015270;28;20117;-87
2024/01/21 00:32:27;;;;;;;9.97;6.60;;;0.80;99.90;;;;;;5009263;28;20041;-85
2024/01/21 00:34:53;;;;;;;12.93;7.10;;;-0.20;99.90;;;;;;5004950;28;20037;-86
2024/01/21 00:37:19;;;;;;;11.67;7.00;;;-0.20;99.90;;;;;;5003913;28;20440;-86
2024/01/21 00:39:45;;;;;;;11.17;7.03;;;1.10;99.90;;;;;;5018691;28;20029;-86
2024/01/21 00:42:10;;;;;;;10.70;6.73;;;-0.20;99.90;;;;;;5020234;28;20067;-86
2024/01/21 00:44:37;;;;;;;12.20;6.37;;;-0.20;99.90;;;;;;5042302;28;20069;-85
2024/01/21 00:47:03;;;;;;;10.33;6.47;;;-0.10;99.90;;;;;;5009396;28;20387;-86
2024/01/21 00:49:29;;;;;;;12.33;6.53;;;-0.10;99.90;;;;;;5016645;28;20042;-86
2024/01/21 00:51:56;;;;;;;12.37;6.80;;;0.80;99.90;;;;;;5002532;28;20507;-87
2024/01/21 00:54:22;;;;;;;12.43;6.97;;;-0.10;99.90;;;;;;4991035;28;20093;-86
2024/01/21 00:56:47;;;;;;;12.13;7.20;;;-0.10;99.90;;;;;;5027607;28;20068;-86
2024/01/21 00:59:13;;;;;;;12.53;7.23;;;1.10;99.90;;;;;;5016016;28;20398;-85
2024/01/21 01:01:39;;;;;;;13.07;7.13;;;-0.10;99.90;;;;;;5024192;28;20405;-86
2024/01/21 01:04:05;;;;;;;9.17;6.60;;;-0.10;99.90;;;;;;5024777;28;20041;-87
2024/01/21 01:06:32;;;;;;;11.93;6.13;;;-0.10;99.90;;;;;;5028237;28;20029;-87
2024/01/21 01:08:58;;;;;;;12.03;6.83;;;-1.20;99.90;;;;;;5002187;28;20034;-85
2024/01/21 01:11:24;;;;;;;11.00;7.00;;;-0.10;99.90;;;;;;5022116;28;20097;-87
2024/01/21 01:13:51;;;;;;;9.80;6.33;;;1.20;99.90;;;;;;5021376;28;20034;-86
2024/01/21 01:16:17;;;;;;;10.83;6.30;;;1.10;99.90;;;;;;5023617;28;20095;-86
2024/01/21 01:18:43;;;;;;;10.63;6.70;;;0.00;99.90;;;;;;5004539;28;20520;-86
2024/01/21 01:21:12;;;;;;;11.33;6.77;;;0.10;99.90;;;;;;4993895;28;20041;-86
2024/01/21 01:23:38;;;;;;;10.63;6.77;;;0.60;99.90;;;;;;5016713;28;20037;-86
2024/01/21 01:26:03;;;;;;;10.40;6.27;;;0.10;99.90;;;;;;5011990;28;20127;-86
2024/01/21 01:28:31;;;;;;;11.03;6.47;;;0.20;99.90;;;;;;5017512;28;20120;-86
2024/01/21 01:30:57;;;;;;;10.33;6.40;;;0.10;99.90;;;;;;5027711;28;20042;-87
2024/01/21 01:33:22;;;;;;;11.70;6.47;;;1.50;99.90;;;;;;5018122;28;20088;-87
2024/01/21 01:35:48;;;;;;;10.50;5.90;;;1.70;99.90;;;;;;5014368;28;20026;-86
2024/01/21 01:38:13;;;;;;;10.17;6.07;;;0.20;99.90;;;;;;5003343;28;20033;-87
2024/01/21 01:40:39;;;;;;;10.57;6.57;;;0.20;99.90;;;;;;5034503;28;20160;-86
2024/01/21 01:43:05;;;;;;;9.60;6.30;;;0.20;99.90;;;;;;5033262;28;20048;-86
2024/01/21 01:45:30;;;;;;;11.33;6.40;;;0.90;99.90;;;;;;5021282;28;20033;-86
2024/01/21 01:48:00;;;;;;;11.27;6.43;;;0.00;99.90;;;;;;5019979;28;20119;-86
2024/01/21 01:50:26;;;;;;;12.27;6.67;;;0.10;99.90;;;;;;4997780;28;20041;-87
2024/01/21 01:52:52;;;;;;;13.17;6.73;;;0.10;99.90;;;;;;4995488;28;20037;-85
2024/01/21 01:55:19;;;;;;;11.20;6.07;;;0.10;99.90;;;;;;5025777;28;20037;-85
2024/01/21 01:57:46;;;;;;;10.43;6.40;;;0.10;99.90;;;;;;5017294;28;20570;-86
2024/01/21 02:00:12;;;;;;;11.47;6.47;;;0.10;99.90;;;;;;5022055;28;20068;-85
2024/01/21 02:02:40;;;;;;;11.47;6.30;;;0.10;99.90;;;;;;5025484;28;20508;-86
2024/01/21 02:05:07;;;;;;;11.03;6.33;;;0.10;99.90;;;;;;5014816;28;20033;-86
2024/01/21 02:07:33;;;;;;;11.47;6.43;;;0.10;99.90;;;;;;5012610;28;20440;-86
2024/01/21 02:10:02;;;;;;;10.87;6.80;;;0.10;99.90;;;;;;5033429;28;20068;-86
2024/01/21 02:12:29;;;;;;;10.87;6.30;;;0.10;99.90;;;;;;4998883;28;20055;-86
2024/01/21 02:14:54;;;;;;;10.90;6.33;;;0.10;99.90;;;;;;5033071;28;20516;-85
2024/01/21 02:17:20;;;;;;;10.77;5.87;;;0.10;99.90;;;;;;5015470;28;20041;-86
2024/01/21 02:19:46;;;;;;;9.87;5.93;;;0.00;99.90;;;;;;5009253;28;20104;-86
2024/01/21 02:22:12;;;;;;;9.57;5.73;;;1.50;99.90;;;;;;5020553;28;20048;-86
2024/01/21 02:24:38;;;;;;;10.20;5.67;;;0.00;99.90;;;;;;5033437;28;20053;-86
2024/01/21 02:27:04;;;;;;;9.67;5.70;;;0.00;99.90;;;;;;5016016;28;20038;-86
2024/01/21 02:29:30;;;;;;;10.20;6.00;;;1.30;99.90;;;;;;5037318;28;20103;-87
2024/01/21 02:31:57;;;;;;;9.40;5.80;;;0.00;99.90;;;;;;5017875;28;20099;-86
2024/01/21 02:34:23;;;;;;;10.13;5.87;;;0.00;99.90;;;;;;5034927;28;20386;-87
2024/01/21 02:36:49;;;;;;;10.97;5.87;;;0.00;99.90;;;;;;4995172;28;20037;-86
2024/01/21 02:39:15;;;;;;;10.53;6.03;;;0.00;99.90;;;;;;5017370;28;20049;-86
2024/01/21 02:41:40;;;;;;;8.83;5.33;;;0.00;99.90;;;;;;4996897;28;20451;-86
2024/01/21 02:44:06;;;;;;;9.80;5.57;;;0.00;99.90;;;;;;5018765;28;20124;-86
2024/01/21 02:46:32;;;;;;;9.50;5.27;;;1.40;99.90;;;;;;5015356;28;20049;-87
2024/01/21 02:48:57;;;;;;;9.27;5.33;;;0.10;99.90;;;;;;5037373;28;20067;-87
2024/01/21 02:51:23;;;;;;;9.87;5.07;;;0.60;99.90;;;;;;5036612;28;20029;-86
2024/01/21 02:53:49;;;;;;;8.70;4.93;;;1.00;99.90;;;;;;5038451;28;20053;-86
2024/01/21 02:56:22;;;;;;;8.37;4.80;;;0.10;99.90;;;;;;5026102;28;20160;-86
2024/01/21 02:58:52;;;;;;;9.40;4.90;;;0.20;99.90;;;;;;5029680;28;20037;-86
2024/01/21 03:01:19;;;;;;;8.93;5.47;;;0.50;99.90;;;;;;5036179;28;20497;-86
2024/01/21 03:03:45;;;;;;;8.87;4.83;;;0.70;99.90;;;;;;5033103;28;20497;-87
2024/01/21 03:06:11;;;;;;;8.93;4.97;;;0.20;99.90;;;;;;5007405;28;20132;-86
2024/01/21 03:08:37;;;;;;;7.70;4.37;;;0.20;99.90;;;;;;5011649;28;20045;-87
2024/01/21 03:11:03;;;;;;;9.00;4.60;;;0.30;99.90;;;;;;5001499;28;20060;-87
2024/01/21 03:13:28;;;;;;;7.93;4.50;;;0.30;99.90;;;;;;5030277;28;20037;-87
2024/01/21 03:15:54;;;;;;;7.23;4.10;;;1.40;99.90;;;;;;5003527;28;20549;-86
2024/01/21 03:18:20;;;;;;;8.10;4.27;;;0.30;99.90;;;;;;5034750;28;20049;-87
2024/01/21 03:20:47;;;;;;;7.90;4.20;;;0.30;99.90;;;;;;5022281;28;20044;-87
2024/01/21 03:23:12;;;;;;;9.53;4.07;;;0.30;99.90;;;;;;5002024;28;20186;-86
2024/01/21 03:25:38;;;;;;;8.17;3.97;;;0.30;99.90;;;;;;5011612;28;20135;-86
2024/01/21 03:28:04;;;;;;;7.67;4.07;;;0.30;99.90;;;;;;5007516;28;20037;-87
2024/01/21 03:30:29;;;;;;;7.13;3.83;;;0.30;99.90;;;;;;5034904;28;20069;-86
2024/01/21 03:32:55;;;;;;;6.43;3.97;;;0.30;99.90;;;;;;5010683;28;20041;-87
2024/01/21 03:35:21;;;;;;;6.63;3.63;;;0.30;99.90;;;;;;4999966;28;20152;-86
2024/01/21 03:37:46;;;;;;;6.20;3.63;;;0.30;99.90;;;;;;5009758;28;20045;-87
2024/01/21 03:40:12;;;;;;;7.23;3.90;;;0.20;99.90;;;;;;5018898;28;20045;-87
2024/01/21 03:42:38;;;;;;;8.80;3.47;;;0.20;99.90;;;;;;4998217;28;20037;-86
2024/01/21 03:45:05;;;;;;;6.57;3.63;;;0.90;99.90;;;;;;5030438;28;20558;-87
2024/01/21 03:47:31;;;;;;;5.60;3.23;;;0.20;99.90;;;;;;5020960;28;20523;-87
2024/01/21 03:49:57;;;;;;;6.07;3.30;;;0.50;99.90;;;;;;5034436;28;20041;-88
2024/01/21 03:52:23;;;;;;;6.77;3.40;;;1.40;99.90;;;;;;5011087;28;20052;-86
2024/01/21 03:54:48;;;;;;;5.97;3.40;;;0.20;99.90;;;;;;5022094;28;20107;-87
2024/01/21 03:57:14;;;;;;;6.43;3.43;;;0.20;99.90;;;;;;5014194;28;20037;-86
2024/01/21 03:59:40;;;;;;;4.37;2.80;;;0.30;99.90;;;;;;5004871;28;20034;-86
2024/01/21 04:02:06;;;;;;;4.87;3.07;;;0.20;99.90;;;;;;5008307;28;20033;-87
2024/01/21 04:04:31;;;;;;;6.50;3.23;;;0.10;99.90;;;;;;5036720;28;20121;-87
2024/01/21 04:06:57;;;;;;;4.97;3.00;;;0.20;99.90;;;;;;5020013;28;20029;-88
2024/01/21 04:09:23;;;;;;;4.83;2.77;;;0.60;99.90;;;;;;5003067;28;20075;-87
2024/01/21 04:11:52;;;;;;;5.73;3.10;;;1.60;99.90;;;;;;5030309;28;20033;-87
2024/01/21 04:14:18;;;;;;;7.30;3.00;;;0.20;99.90;;;;;;5043465;28;20045;-87
2024/01/21 04:16:43;;;;;;;4.87;2.77;;;0.20;99.90;;;;;;5046439;28;20050;-87
2024/01/21 04:19:09;;;;;;;5.20;2.67;;;0.20;99.90;;;;;;5045555;28;20041;-87
2024/01/21 04:21:36;;;;;;;5.37;2.67;;;1.70;99.90;;;;;;5017708;28;20041;-87
2024/01/21 04:24:02;;;;;;;5.33;2.80;;;1.60;99.90;;;;;;5032458;28;20049;-87
2024/01/21 04:26:29;;;;;;;4.97;2.60;;;0.30;99.90;;;;;;5014422;28;20071;-87
2024/01/21 04:28:54;;;;;;;5.50;2.60;;;0.40;99.90;;;;;;5028198;28;20113;-87
2024/01/21 04:31:20;;;;;;;5.30;2.70;;;2.00;99.90;;;;;;5056180;28;20096;-87
2024/01/21 04:33:46;;;;;;;4.60;2.67;;;2.00;99.90;;;;;;5032263;28;20033;-87
2024/01/21 04:36:17;;;;;;;6.53;2.60;;;0.30;99.90;;;;;;5014854;28;20041;-86
2024/01/21 04:38:44;;;;;;;4.40;2.73;;;0.30;99.90;;;;;;5016455;28;20399;-87
2024/01/21 04:41:11;;;;;;;3.90;2.40;;;0.40;99.90;;;;;;5019508;28;20084;-87
2024/01/21 04:43:37;;;;;;;5.73;2.50;;;0.30;99.90;;;;;;5017531;28;20410;-87
2024/01/21 04:46:02;;;;;;;4.97;2.40;;;0.40;99.90;;;;;;4997623;28;20033;-86
2024/01/21 04:48:28;;;;;;;5.00;2.40;;;0.50;99.90;;;;;;5033351;28;20046;-87
2024/01/21 04:50:54;;;;;;;5.87;2.50;;;0.50;99.90;;;;;;5006711;28;20553;-88
2024/01/21 04:53:19;;;;;;;6.80;2.60;;;0.60;99.90;;;;;;5023285;28;20051;-87
2024/01/21 04:55:45;;;;;;;4.13;2.40;;;0.60;99.90;;;;;;5007520;28;20449;-87
2024/01/21 04:58:11;;;;;;;4.20;2.30;;;0.60;99.90;;;;;;5037716;28;20494;-87
2024/01/21 05:00:36;;;;;;;4.67;2.23;;;0.50;99.90;;;;;;5015050;28;20106;-86
2024/01/21 05:03:02;;;;;;;6.03;2.63;;;1.70;99.90;;;;;;5017171;28;20037;-87
2024/01/21 05:05:27;;;;;;;3.97;2.43;;;0.50;99.90;;;;;;5034046;28;20042;-87
2024/01/21 05:07:53;;;;;;;4.30;2.10;;;1.80;99.90;;;;;;5006835;28;20067;-87
2024/01/21 05:10:19;;;;;;;4.47;2.23;;;0.50;99.90;;;;;;5009500;28;20037;-87
2024/01/21 05:12:45;;;;;;;3.50;2.40;;;0.50;99.90;;;;;;4999230;28;20044;-87
2024/01/21 05:15:10;;;;;;;4.47;2.27;;;1.30;99.90;;;;;;5019934;28;20382;-87
2024/01/21 05:17:36;;;;;;;4.27;2.40;;;0.50;99.90;;;;;;5020327;28;20045;-87
2024/01/21 05:20:03;;;;;;;4.53;2.50;;;1.50;99.90;;;;;;5035363;28;20037;-86
2024/01/21 05:22:29;;;;;;;4.30;2.27;;;0.60;99.90;;;;;;5031041;28;20037;-88
2024/01/21 05:24:55;;;;;;;4.87;2.40;;;0.60;99.90;;;;;;5019213;28;20112;-88
2024/01/21 05:27:21;;;;;;;4.37;2.27;;;2.10;99.90;;;;;;5020532;28;20090;-87
2024/01/21 05:29:47;;;;;;;5.23;3.00;;;1.60;99.90;;;;;;5018016;28;20457;-87
2024/01/21 05:32:13;;;;;;;4.03;2.30;;;0.60;99.90;;;;;;5017425;28;20072;-87
2024/01/21 05:34:39;;;;;;;4.03;2.07;;;2.10;99.90;;;;;;5034178;28;20061;-87
2024/01/21 05:37:05;;;;;;;6.37;2.60;;;0.70;99.90;;;;;;5034628;28;20052;-87
2024/01/21 05:39:31;;;;;;;4.50;2.23;;;1.70;99.90;;;;;;5036547;28;20064;-87
2024/01/21 05:42:05;;;;;;;3.83;2.27;;;2.40;99.90;;;;;;5003958;28;20272;-87
2024/01/21 05:44:31;;;;;;;4.43;2.42;;;0.80;99.90;;;;;;5001262;28;20116;-87
2024/01/21 05:46:57;;;;;;;4.03;2.43;;;0.90;99.90;;;;;;5033398;28;20480;-86
2024/01/21 05:49:23;;;;;;;5.07;2.40;;;2.00;99.90;;;;;;4998005;28;20099;-87
2024/01/21 05:51:49;;;;;;;3.60;2.50;;;1.90;99.90;;;;;;5018737;28;20037;-86
2024/01/21 05:54:16;;;;;;;6.53;2.60;;;1.90;99.90;;;;;;5015744;28;20037;-87
2024/01/21 05:56:41;;;;;;;4.50;2.60;;;0.90;99.90;;;;;;5015816;28;20119;-87
2024/01/21 05:59:07;;;;;;;4.03;2.47;;;0.80;99.90;;;;;;4996649;28;20097;-87
2024/01/21 06:01:33;;;;;;;4.60;2.63;;;0.90;99.90;;;;;;5011463;28;20037;-86
2024/01/21 06:03:58;;;;;;;5.83;3.00;;;1.00;99.90;;;;;;5029995;28;20037;-87
2024/01/21 06:06:24;;;;;;;5.20;2.80;;;1.00;99.90;;;;;;5029754;28;20038;-88
2024/01/21 06:08:49;;;;;;;5.33;2.87;;;1.00;99.90;;;;;;4994211;28;20041;-87
2024/01/21 06:11:15;;;;;;;5.77;2.87;;;1.00;99.90;;;;;;5013086;28;20038;-87
2024/01/21 06:13:41;;;;;;;4.70;2.87;;;1.00;99.90;;;;;;5009836;28;20405;-87
2024/01/21 06:16:06;;;;;;;6.50;3.03;;;1.00;99.90;;;;;;4996905;28;20041;-86
2024/01/21 06:18:32;;;;;;;7.20;3.23;;;1.00;99.90;;;;;;4996139;28;20497;-87
2024/01/21 06:20:57;;;;;;;7.20;3.23;;;1.40;99.90;;;;;;5031830;28;20069;-87
2024/01/21 06:23:23;;;;;;;5.77;3.53;;;1.00;99.90;;;;;;4997833;28;20065;-87
2024/01/21 06:25:49;;;;;;;5.27;3.00;;;1.00;99.90;;;;;;5007659;28;20034;-88
2024/01/21 06:28:16;;;;;;;5.73;3.03;;;1.00;99.90;;;;;;4996392;28;20501;-88
2024/01/21 06:30:42;;;;;;;4.97;2.80;;;2.10;99.90;;;;;;5015264;28;20045;-87
2024/01/21 06:33:07;;;;;;;5.20;3.00;;;1.20;99.90;;;;;;5033086;28;20040;-87
2024/01/21 06:35:33;;;;;;;8.80;3.73;;;1.00;99.90;;;;;;5016090;28;20097;-88
2024/01/21 06:37:59;;;;;;;6.40;3.53;;;2.30;99.90;;;;;;5032744;28;20029;-88
2024/01/21 06:40:24;;;;;;;7.73;3.50;;;0.80;99.90;;;;;;5015164;28;20042;-86
2024/01/21 06:42:50;;;;;;;6.47;3.60;;;0.90;99.90;;;;;;5015195;28;20037;-88
2024/01/21 06:45:15;;;;;;;6.50;3.60;;;1.90;99.90;;;;;;5015328;28;20055;-88
2024/01/21 06:47:42;;;;;;;5.40;3.10;;;0.80;99.90;;;;;;5017019;28;20440;-88
2024/01/21 06:50:09;;;;;;;5.40;3.53;;;0.50;99.90;;;;;;4999523;28;20076;-87
2024/01/21 06:52:35;;;;;;;5.37;3.30;;;0.90;99.90;;;;;;5008718;28;20117;-88
2024/01/21 06:55:01;;;;;;;7.80;3.77;;;0.80;99.90;;;;;;5012290;28;20088;-86
2024/01/21 06:57:27;;;;;;;5.80;3.77;;;0.90;99.90;;;;;;5034539;28;20033;-87
2024/01/21 06:59:52;;;;;;;5.77;3.23;;;0.80;99.90;;;;;;5002349;28;20125;-87
2024/01/21 07:02:18;;;;;;;5.93;3.77;;;0.80;99.90;;;;;;5023065;28;20164;-87
2024/01/21 07:04:44;;;;;;;6.47;3.57;;;2.00;99.90;;;;;;5010879;28;20056;-87
2024/01/21 07:07:09;;;;;;;7.33;3.70;;;0.80;99.90;;;;;;5012620;28;20049;-87
2024/01/21 07:09:35;;;;;;;7.20;3.80;;;0.80;99.90;;;;;;5023225;28;20168;-87
2024/01/21 07:12:01;;;;;;;5.10;3.40;;;0.90;99.90;;;;;;5006349;28;20627;-87
2024/01/21 07:14:33;;;;;;;7.03;3.97;;;2.30;99.90;;;;;;5031886;28;20044;-87
2024/01/21 07:16:59;;;;;;;6.70;3.70;;;0.20;99.90;;;;;;4998307;28;20041;-87
2024/01/21 07:19:24;;;;;;;10.03;4.50;;;2.00;99.90;;;;;;5011385;28;20045;-87
2024/01/21 07:21:50;;;;;;;6.43;3.80;;;0.90;99.90;;;;;;5007163;28;20385;-86
2024/01/21 07:24:17;;;;;;;6.80;4.00;;;2.10;99.90;;;;;;4990726;28;20100;-86
2024/01/21 07:26:42;;;;;;;7.90;4.20;;;0.80;99.90;;;;;;5032229;28;20050;-86
2024/01/21 07:29:08;;;;;;;7.17;4.23;;;1.30;99.90;;;;;;5032869;28;20665;-86
2024/01/21 07:31:33;;;;;;;7.70;4.17;;;0.90;99.90;;;;;;5018373;28;20095;-84
2024/01/21 07:33:59;;;;;;;6.93;4.00;;;0.90;99.90;;;;;;5041510;28;20033;-86
2024/01/21 07:36:25;;;;;;;6.80;4.10;;;0.90;99.90;;;;;;5012655;28;20683;-87
2024/01/21 07:38:50;;;;;;;7.00;3.87;;;2.20;99.90;;;;;;4992385;28;20342;-87
2024/01/21 07:41:16;;;;;;;7.00;4.00;;;0.90;99.90;;;;;;5023252;28;20038;-86
2024/01/21 07:43:41;;;;;;;8.27;4.40;;;0.90;99.90;;;;;;5007042;28;20044;-86
2024/01/21 07:46:07;;;;;;;8.07;4.37;;;1.00;99.90;;;;;;5024803;28;20611;-86
2024/01/21 07:48:33;;;;;;;6.73;4.10;;;0.90;99.90;;;;;;5027985;28;20048;-86
2024/01/21 07:50:58;;;;;;;8.23;4.20;;;2.40;99.90;;;;;;5013004;28;20037;-87
2024/01/21 07:53:25;;;;;;;8.77;4.50;;;1.00;99.90;;;;;;5005312;28;20041;-85
2024/01/21 07:55:51;;;;;;;8.80;4.37;;;1.00;99.90;;;;;;5011717;28;20037;-85
2024/01/21 07:58:18;;;;;;;8.20;4.27;;;1.00;99.90;;;;;;5016494;28;20049;-86
2024/01/21 08:00:43;;;;;;;7.23;4.57;;;1.00;99.90;;;;;;5031142;28;20038;-85
2024/01/21 08:03:09;;;;;;;7.97;4.30;;;1.00;99.90;;;;;;5013569;28;20100;-85
2024/01/21 08:05:35;;;;;;;7.53;4.30;;;1.00;99.90;;;;;;4989021;28;20066;-85
2024/01/21 08:08:01;;;;;;;9.37;5.33;;;1.00;99.90;;;;;;5025181;28;20029;-85
2024/01/21 08:10:26;;;;;;;8.30;4.43;;;1.00;99.90;;;;;;5003474;28;20030;-84
2024/01/21 08:12:52;;;;;;;7.20;4.50;;;1.10;99.90;;;;;;5001506;28;20029;-84
2024/01/21 08:15:17;;;;;;;7.73;4.33;;;1.10;99.90;;;;;;5003996;28;20828;-84
2024/01/21 08:17:43;;;;;;;7.80;4.20;;;1.10;99.90;;;;;;5007148;28;20489;-85
2024/01/21 08:20:09;;;;;;;8.87;4.87;;;1.10;99.90;;;;;;5004634;28;20046;-85
2024/01/21 08:22:35;;;;;;;7.20;4.27;;;1.20;99.90;;;;;;4991828;28;20037;-86
2024/01/21 08:25:01;;;;;;;7.37;4.40;;;1.20;99.90;;;;;;4998890;28;20037;-85
2024/01/21 08:27:27;;;;;;;6.27;4.17;;;1.20;99.90;;;;;;4997448;28;20474;-86
2024/01/21 08:29:52;;;;;;;6.67;3.97;;;1.30;99.90;;;;;;5016157;28;20087;-86
2024/01/21 08:32:18;;;;;;;7.20;4.57;;;1.30;99.90;;;;;;5020005;28;20116;-85
2024/01/21 08:34:44;;;;;;;7.97;4.20;;;1.30;99.90;;;;;;5035049;28;20616;-85
2024/01/21 08:37:10;;;;;;;7.87;4.43;;;1.30;99.90;;;;;;4997871;28;20045;-85
2024/01/21 08:39:36;;;;;;;7.03;3.90;;;1.30;99.90;;;;;;5015019;28;20044;-84
2024/01/21 08:42:01;;;;;;;7.17;4.30;;;1.30;99.90;;;;;;5016752;28;20567;-85
2024/01/21 08:44:27;;;;;;;6.50;4.43;;;1.30;99.90;;;;;;5032897;28;20409;-86
2024/01/21 08:46:53;;;;;;;7.27;4.47;;;1.30;99.90;;;;;;5022358;28;20527;-83
2024/01/21 08:49:18;;;;;;;7.33;4.47;;;1.40;99.90;;;;;;5010295;28;20520;-85
2024/01/21 08:51:44;;;;;;;9.07;5.07;;;1.40;99.90;;;;;;5004535;28;20033;-85
2024/01/21 08:54:09;;;;;;;7.77;4.53;;;1.50;99.90;;;;;;5006362;28;20033;-85
2024/01/21 08:56:35;;;;;;;8.10;4.47;;;1.50;99.90;;;;;;5007122;28;20033;-85
2024/01/21 08:59:01;;;;;;;8.63;4.40;;;1.60;99.90;;;;;;5015810;28;20037;-85
2024/01/21 09:01:26;;;;;;;7.90;4.47;;;3.10;99.90;;;;;;5002404;28;20038;-85
2024/01/21 09:03:52;;;;;;;8.07;4.77;;;1.70;99.90;;;;;;5008543;28;20081;-86
2024/01/21 09:06:19;;;;;;;7.57;4.40;;;1.70;99.90;;;;;;5014516;28;20036;-85
2024/01/21 09:08:44;;;;;;;8.07;4.40;;;2.40;99.90;;;;;;5016698;28;20032;-86
2024/01/21 09:11:12;;;;;;;7.50;4.47;;;2.60;99.90;;;;;;5017795;28;20076;-86
2024/01/21 09:13:38;;;;;;;7.47;4.63;;;1.70;99.90;;;;;;5004649;28;20219;-86
2024/01/21 09:16:04;;;;;;;8.97;5.07;;;3.10;99.90;;;;;;5030527;28;20040;-86
2024/01/21 09:18:30;;;;;;;7.30;4.70;;;1.80;99.90;;;;;;4996852;28;20041;-87
2024/01/21 09:20:58;;;;;;;8.20;5.50;;;3.50;99.90;;;;;;5021697;28;20045;-86
2024/01/21 09:23:24;;;;;;;8.13;4.70;;;3.20;99.90;;;;;;5013407;28;20458;-85
2024/01/21 09:25:49;;;;;;;9.13;5.10;;;3.40;99.90;;;;;;5035941;28;20033;-85
2024/01/21 09:28:15;;;;;;;7.90;4.90;;;3.10;99.90;;;;;;5038280;28;20052;-85
2024/01/21 09:30:41;;;;;;;8.60;4.93;;;3.40;99.90;;;;;;5018827;28;20066;-86
2024/01/21 09:33:07;;;;;;;8.67;4.83;;;3.20;99.90;;;;;;5008146;28;20037;-86
2024/01/21 09:35:32;;;;;;;7.73;4.90;;;2.20;99.90;;;;;;5011814;28;20060;-85
2024/01/21 09:37:58;;;;;;;8.03;5.00;;;2.20;99.90;;;;;;4989906;28;20034;-85
2024/01/21 09:40:24;;;;;;;8.00;4.93;;;2.20;99.90;;;;;;5036436;28;20087;-85
2024/01/21 09:42:50;;;;;;;8.32;4.93;;;2.30;99.90;;;;;;5036253;28;20041;-86
2024/01/21 09:45:17;;;;;;;9.20;5.00;;;2.30;99.90;;;;;;5042429;28;20390;-85
2024/01/21 09:47:43;;;;;;;7.93;4.87;;;3.60;99.90;;;;;;5016271;28;20520;-86
2024/01/21 09:50:10;;;;;;;9.50;5.07;;;2.30;99.90;;;;;;5012098;28;20040;-86
2024/01/21 09:52:36;;;;;;;8.10;4.80;;;2.40;99.90;;;;;;4996476;28;20544;-86
2024/01/21 09:55:02;;;;;;;7.47;4.95;;;2.40;99.90;;;;;;5002857;28;20029;-84
2024/01/21 09:57:28;;;;;;;9.07;5.30;;;2.40;99.90;;;;;;5003216;28;20037;-85
2024/01/21 09:59:55;;;;;;;8.30;4.78;;;2.40;99.90;;;;;;5024267;28;20650;-85
2024/01/21 10:02:21;;;;;;;8.02;4.82;;;2.40;99.90;;;;;;5016012;28;20048;-86
2024/01/21 10:04:47;;;;;;;8.65;5.38;;;3.40;99.90;;;;;;5023957;28;20045;-87
2024/01/21 10:07:13;;;;;;;10.48;5.28;;;2.50;99.90;;;;;;5029307;28;20404;-87
2024/01/21 10:09:39;;;;;;;8.02;5.22;;;3.80;99.90;;;;;;5034107;28;20029;-85
2024/01/21 10:12:07;;;;;;;9.02;5.15;;;3.90;99.90;;;;;;5026044;28;20037;-86
2024/01/21 10:14:32;;;;;;;9.13;6.00;;;2.80;99.90;;;;;;5007415;28;20061;-87
2024/01/21 10:17:00;;;;;;;7.97;5.18;;;3.70;99.90;;;;;;5033822;28;20037;-85
2024/01/21 10:19:36;;;;;;;8.85;4.95;;;2.70;99.90;;;;;;5016776;28;20544;-87
2024/01/21 10:22:13;;;;;;;10.90;5.22;;;2.80;99.90;;;;;;5022280;28;20048;-87
2024/01/21 10:24:48;;;;;;;9.05;5.03;;;2.90;99.90;;;;;;5004002;28;20097;-87
2024/01/21 10:27:15;;;;;;;9.10;5.55;;;4.00;99.90;;;;;;5004336;28;20041;-87
2024/01/21 10:29:43;;;;;;;9.45;5.80;;;4.50;99.90;;;;;;5020453;28;20130;-86
2024/01/21 10:32:10;;;;;;;8.52;5.05;;;4.70;99.90;;;;;;5015622;28;20112;-85
2024/01/21 10:34:45;;;;;;;8.68;5.72;;;3.20;99.90;;;;;;5001927;28;20101;-86
2024/01/21 10:37:15;;;;;;;9.07;5.78;;;4.60;99.90;;;;;;5003648;28;20041;-86
2024/01/21 10:39:44;;;;;;;8.93;5.65;;;3.80;99.90;;;;;;5022660;28;20041;-86
2024/01/21 10:42:13;;;;;;;10.27;6.10;;;4.30;99.90;;;;;;5040216;28;20087;-86
2024/01/21 10:44:39;;;;;;;8.55;5.10;;;4.40;99.90;;;;;;5039612;28;20052;-86
2024/01/21 10:47:07;;;;;;;8.45;5.65;;;4.00;99.90;;;;;;5017822;28;20056;-86
2024/01/21 10:49:34;;;;;;;11.00;5.57;;;3.30;99.90;;;;;;5016721;28;20056;-86
2024/01/21 10:52:00;;;;;;;9.35;5.50;;;4.50;99.90;;;;;;5036462;28;20048;-85
2024/01/21 10:54:27;;;;;;;9.00;5.38;;;3.20;99.90;;;;;;5036947;28;20045;-84
2024/01/21 10:56:53;;;;;;;9.73;5.72;;;3.20;99.90;;;;;;5027009;28;20088;-85
2024/01/21 10:59:20;;;;;;;8.75;5.57;;;3.20;99.90;;;;;;5027557;28;20038;-86
2024/01/21 11:01:46;;;;;;;10.70;5.55;;;4.00;99.90;;;;;;4990483;28;20159;-85
2024/01/21 11:04:12;;;;;;;11.10;6.07;;;3.20;99.90;;;;;;5034728;28;20041;-85
2024/01/21 11:06:46;;;;;;;9.07;5.00;;;3.10;99.90;;;;;;5002231;28;20091;-85
2024/01/21 11:09:16;;;;;;;9.65;5.70;;;3.20;99.90;;;;;;5016286;28;20404;-85
2024/01/21 11:11:44;;;;;;;10.80;5.90;;;3.30;99.90;;;;;;5018273;28;20099;-85
2024/01/21 11:14:39;;;;;;;9.20;5.82;;;4.30;99.90;;;;;;5011578;28;20263;-85
2024/01/21 11:17:07;;;;;;;10.93;6.03;;;3.30;99.90;;;;;;5018450;28;20037;-85
2024/01/21 11:19:54;;;;;;;8.68;5.35;;;3.40;99.90;;;;;;5011270;28;20072;-84
2024/01/21 11:22:23;;;;;;;8.68;5.43;;;3.40;99.90;;;;;;5022052;28;20033;-84
2024/01/21 11:24:52;;;;;;;10.52;5.85;;;3.40;99.90;;;;;;5015555;28;20042;-86
2024/01/21 11:27:21;;;;;;;11.82;6.05;;;3.40;99.90;;;;;;4999848;28;20044;-84
2024/01/21 11:29:54;;;;;;;10.43;6.00;;;4.30;99.90;;;;;;5036909;28;20378;-85
2024/01/21 11:32:26;;;;;;;9.80;6.22;;;3.50;99.90;;;;;;5020675;28;20416;-84
2024/01/21 11:34:52;;;;;;;9.02;5.60;;;3.40;99.90;;;;;;5024630;28;20033;-85
2024/01/21 11:37:19;;;;;;;10.23;6.55;;;4.80;99.90;;;;;;5037391;28;20065;-85
2024/01/21 11:39:45;;;;;;;10.18;5.80;;;3.90;99.90;;;;;;5018353;28;20037;-85
2024/01/21 11:42:11;;;;;;;9.02;5.60;;;3.50;99.90;;;;;;5034306;28;20065;-85
2024/01/21 11:44:39;;;;;;;10.20;5.72;;;3.50;99.90;;;;;;5001762;28;20034;-85
2024/01/21 11:47:06;;;;;;;10.50;6.43;;;4.50;99.90;;;;;;5016393;28;20041;-84
2024/01/21 11:49:33;;;;;;;11.00;6.28;;;3.50;99.90;;;;;;5020179;28;20485;-85
2024/01/21 11:52:00;;;;;;;11.55;6.18;;;3.50;99.90;;;;;;5003898;28;20104;-84
2024/01/21 11:54:28;;;;;;;11.70;7.30;;;3.50;99.90;;;;;;5012882;28;20044;-84
2024/01/21 11:56:53;;;;;;;12.40;7.68;;;3.50;99.90;;;;;;5034109;28;20120;-85
2024/01/21 11:59:19;;;;;;;9.38;6.28;;;3.50;99.90;;;;;;5011619;28;20069;-84
2024/01/21 12:01:47;;;;;;;11.52;6.68;;;3.50;99.90;;;;;;5032119;28;20033;-85
2024/01/21 12:04:12;;;;;;;9.32;6.22;;;3.50;99.90;;;;;;5023499;28;20045;-84
2024/01/21 12:06:47;;;;;;;10.80;6.80;;;3.60;99.90;;;;;;5009522;28;20059;-86
2024/01/21 12:09:13;;;;;;;13.93;6.95;;;3.50;99.90;;;;;;5028437;28;20064;-84
2024/01/21 12:11:40;;;;;;;10.70;7.28;;;4.60;99.90;;;;;;5012719;28;20030;-84
2024/01/21 12:14:12;;;;;;;12.02;6.68;;;3.70;99.90;;;;;;5018688;28;20056;-85
2024/01/21 12:16:39;;;;;;;11.55;7.10;;;3.50;99.90;;;;;;5004396;28;20525;-85
2024/01/21 12:19:05;;;;;;;11.02;6.80;;;3.50;99.90;;;;;;5037380;28;20052;-85
2024/01/21 12:21:32;;;;;;;11.48;6.65;;;3.50;99.90;;;;;;5038014;28;20037;-85
2024/01/21 12:23:59;;;;;;;12.00;6.85;;;3.90;99.90;;;;;;5039127;28;20025;-85
2024/01/21 12:26:25;;;;;;;10.43;6.75;;;3.70;99.90;;;;;;5041601;28;20064;-86
2024/01/21 12:29:06;;;;;;;10.65;6.88;;;4.60;99.90;;;;;;5020885;28;20037;-84
2024/01/21 12:31:34;;;;;;;12.90;7.13;;;3.50;99.90;;;;;;5033092;28;20113;-85
2024/01/21 12:34:02;;;;;;;12.45;7.40;;;3.50;99.90;;;;;;5027038;28;20045;-84
2024/01/21 12:36:31;;;;;;;11.85;7.30;;;3.60;99.90;;;;;;5008900;28;20076;-85
2024/01/21 12:38:57;;;;;;;12.30;7.60;;;4.50;99.90;;;;;;5027397;28;20042;-85
2024/01/21 12:41:23;;;;;;;10.63;6.80;;;4.50;99.90;;;;;;5031800;28;20092;-85
2024/01/21 12:43:52;;;;;;;12.93;7.32;;;3.50;99.90;;;;;;5027130;28;20025;-85
2024/01/21 12:46:19;;;;;;;12.07;7.38;;;4.80;99.90;;;;;;5002833;28;20044;-85
2024/01/21 12:48:45;;;;;;;12.18;7.15;;;3.50;99.90;;;;;;5026792;28;20037;-85